createdAt,value
2022-07-31T00:00:32.407Z,24.71
2022-07-31T00:01:32.355Z,24.61
2022-07-31T00:02:32.316Z,24.59
2022-07-31T00:03:32.330Z,24.68
2022-07-31T00:04:32.218Z,24.57
2022-07-31T00:05:32.168Z,24.73
2022-07-31T00:06:32.125Z,24.61
2022-07-31T00:07:32.075Z,24.69
2022-07-31T00:08:32.029Z,24.59
2022-07-31T00:09:49.260Z,24.57
2022-07-31T00:10:31.939Z,24.67
2022-07-31T00:11:31.887Z,24.57
2022-07-31T00:12:31.842Z,24.57
2022-07-31T00:13:56.635Z,24.67
2022-07-31T00:14:31.750Z,24.59
2022-07-31T00:15:31.704Z,24.57
2022-07-31T00:16:31.657Z,24.64
2022-07-31T00:17:31.607Z,24.60
2022-07-31T00:18:31.565Z,24.56
2022-07-31T00:19:31.513Z,24.64
2022-07-31T00:20:31.467Z,24.63
2022-07-31T00:21:31.419Z,24.50
2022-07-31T00:22:31.375Z,24.53
2022-07-31T00:23:31.329Z,24.56
2022-07-31T00:24:31.283Z,24.45
2022-07-31T00:25:31.233Z,24.57
2022-07-31T00:26:31.188Z,24.56
2022-07-31T00:27:31.140Z,24.54
2022-07-31T00:28:31.094Z,24.49
2022-07-31T00:29:31.048Z,24.47
2022-07-31T00:30:31.002Z,24.59
2022-07-31T00:31:30.953Z,24.53
2022-07-31T00:32:30.906Z,24.56
2022-07-31T00:33:30.859Z,24.52
2022-07-31T00:34:30.813Z,24.45
2022-07-31T00:35:30.852Z,24.50
2022-07-31T00:36:30.719Z,24.45
2022-07-31T00:37:37.246Z,24.45
2022-07-31T00:38:30.629Z,24.50
2022-07-31T00:39:30.576Z,24.42
2022-07-31T00:40:30.532Z,24.44
2022-07-31T00:41:30.486Z,24.47
2022-07-31T00:42:30.439Z,24.38
2022-07-31T00:43:30.961Z,24.44
2022-07-31T00:44:30.345Z,24.42
2022-07-31T00:45:31.697Z,24.38
2022-07-31T00:46:30.252Z,24.38
2022-07-31T00:47:30.201Z,24.49
2022-07-31T00:48:30.158Z,24.42
2022-07-31T00:49:37.544Z,24.38
2022-07-31T00:50:30.067Z,24.38
2022-07-31T00:51:30.015Z,24.42
2022-07-31T00:52:29.971Z,24.37
2022-07-31T00:53:29.924Z,24.42
2022-07-31T00:54:29.876Z,24.39
2022-07-31T00:55:29.826Z,24.38
2022-07-31T00:56:29.781Z,24.37
2022-07-31T00:57:29.733Z,24.41
2022-07-31T00:58:29.691Z,24.37
2022-07-31T00:59:29.640Z,24.37
2022-07-31T01:00:29.597Z,24.44
2022-07-31T01:01:29.629Z,24.41
2022-07-31T01:02:29.501Z,24.39
2022-07-31T01:03:29.458Z,24.37
2022-07-31T01:04:31.362Z,24.29
2022-07-31T01:05:29.361Z,24.29
2022-07-31T01:06:29.315Z,24.42
2022-07-31T01:07:29.265Z,24.29
2022-07-31T01:08:29.218Z,24.37
2022-07-31T01:09:29.174Z,24.31
2022-07-31T01:10:29.125Z,24.32
2022-07-31T01:11:29.076Z,24.32
2022-07-31T01:12:29.031Z,24.39
2022-07-31T01:13:28.982Z,24.38
2022-07-31T01:14:28.939Z,24.32
2022-07-31T01:15:28.887Z,24.32
2022-07-31T01:16:28.843Z,24.29
2022-07-31T01:17:28.796Z,24.31
2022-07-31T01:18:28.752Z,24.27
2022-07-31T01:19:42.128Z,24.37
2022-07-31T01:20:28.657Z,24.29
2022-07-31T01:21:28.607Z,24.31
2022-07-31T01:22:33.948Z,24.31
2022-07-31T01:23:28.513Z,24.27
2022-07-31T01:24:28.471Z,24.24
2022-07-31T01:25:28.419Z,24.27
2022-07-31T01:26:28.379Z,24.24
2022-07-31T01:27:28.324Z,24.22
2022-07-31T01:28:28.279Z,24.27
2022-07-31T01:29:28.235Z,24.26
2022-07-31T01:30:30.848Z,24.23
2022-07-31T01:31:28.256Z,24.23
2022-07-31T01:32:28.091Z,24.22
2022-07-31T01:33:28.043Z,24.20
2022-07-31T01:34:28.011Z,24.20
2022-07-31T01:35:27.948Z,24.20
2022-07-31T01:36:27.903Z,24.26
2022-07-31T01:37:27.856Z,24.20
2022-07-31T01:38:27.810Z,24.23
2022-07-31T01:39:27.759Z,24.17
2022-07-31T01:40:27.716Z,24.13
2022-07-31T01:41:27.668Z,24.20
2022-07-31T01:42:27.623Z,24.22
2022-07-31T01:43:27.572Z,24.17
2022-07-31T01:44:27.528Z,24.08
2022-07-31T01:45:27.483Z,24.07
2022-07-31T01:46:27.435Z,24.22
2022-07-31T01:47:27.386Z,24.10
2022-07-31T01:48:27.339Z,24.10
2022-07-31T01:49:27.345Z,24.19
2022-07-31T01:50:43.821Z,24.10
2022-07-31T01:51:27.201Z,24.10
2022-07-31T01:52:27.150Z,24.16
2022-07-31T01:53:27.106Z,24.16
2022-07-31T01:54:27.057Z,24.13
2022-07-31T01:55:27.015Z,24.19
2022-07-31T01:56:26.965Z,24.20
2022-07-31T01:57:26.916Z,24.05
2022-07-31T01:58:26.870Z,24.16
2022-07-31T01:59:26.819Z,24.13
2022-07-31T02:00:33.485Z,24.10
2022-07-31T02:01:27.537Z,24.14
2022-07-31T02:02:26.681Z,24.13
2022-07-31T02:03:42.863Z,24.14
2022-07-31T02:04:26.586Z,24.05
2022-07-31T02:05:26.538Z,24.05
2022-07-31T02:06:26.492Z,24.10
2022-07-31T02:07:26.445Z,24.08
2022-07-31T02:08:26.399Z,24.14
2022-07-31T02:09:26.353Z,24.08
2022-07-31T02:10:26.305Z,24.04
2022-07-31T02:11:26.256Z,24.08
2022-07-31T02:12:33.021Z,24.01
2022-07-31T02:13:26.164Z,24.08
2022-07-31T02:14:26.122Z,24.10
2022-07-31T02:15:26.067Z,24.02
2022-07-31T02:16:26.022Z,23.95
2022-07-31T02:17:25.974Z,23.98
2022-07-31T02:18:25.930Z,23.97
2022-07-31T02:19:25.883Z,23.98
2022-07-31T02:20:25.832Z,23.97
2022-07-31T02:21:25.790Z,24.05
2022-07-31T02:22:25.739Z,24.02
2022-07-31T02:23:25.695Z,24.00
2022-07-31T02:24:25.644Z,24.00
2022-07-31T02:25:25.603Z,23.97
2022-07-31T02:26:25.550Z,23.94
2022-07-31T02:27:57.359Z,23.97
2022-07-31T02:28:25.454Z,23.95
2022-07-31T02:29:25.410Z,23.94
2022-07-31T02:30:25.366Z,23.97
2022-07-31T02:31:25.334Z,23.90
2022-07-31T02:32:25.265Z,24.00
2022-07-31T02:33:25.225Z,24.04
2022-07-31T02:34:29.226Z,23.95
2022-07-31T02:35:25.127Z,24.01
2022-07-31T02:36:25.077Z,23.95
2022-07-31T02:37:25.033Z,23.94
2022-07-31T02:38:24.984Z,23.95
2022-07-31T02:39:30.057Z,23.98
2022-07-31T02:40:24.888Z,23.97
2022-07-31T02:41:24.843Z,23.98
2022-07-31T02:42:24.794Z,23.94
2022-07-31T02:43:24.751Z,23.92
2022-07-31T02:44:27.061Z,23.92
2022-07-31T02:45:24.654Z,23.94
2022-07-31T02:46:24.605Z,23.94
2022-07-31T02:47:24.559Z,23.87
2022-07-31T02:48:24.511Z,23.97
2022-07-31T02:49:24.516Z,23.92
2022-07-31T02:50:24.419Z,23.95
2022-07-31T02:51:24.377Z,23.87
2022-07-31T02:52:24.322Z,23.85
2022-07-31T02:53:24.276Z,23.94
2022-07-31T02:54:24.230Z,23.86
2022-07-31T02:55:24.181Z,23.92
2022-07-31T02:56:24.134Z,23.87
2022-07-31T02:57:24.090Z,23.87
2022-07-31T02:58:24.039Z,23.89
2022-07-31T02:59:23.993Z,23.92
2022-07-31T03:00:24.031Z,23.90
2022-07-31T03:01:23.947Z,23.89
2022-07-31T03:02:23.850Z,23.80
2022-07-31T03:03:23.804Z,23.86
2022-07-31T03:04:23.755Z,23.87
2022-07-31T03:05:23.715Z,23.86
2022-07-31T03:06:23.662Z,23.86
2022-07-31T03:07:23.616Z,23.82
2022-07-31T03:08:23.570Z,23.80
2022-07-31T03:09:23.524Z,23.86
2022-07-31T03:10:23.475Z,23.83
2022-07-31T03:11:23.426Z,23.87
2022-07-31T03:12:23.378Z,23.80
2022-07-31T03:13:23.332Z,23.79
2022-07-31T03:14:23.287Z,23.87
2022-07-31T03:15:23.239Z,23.85
2022-07-31T03:16:23.190Z,23.76
2022-07-31T03:17:23.143Z,23.85
2022-07-31T03:18:23.095Z,23.80
2022-07-31T03:19:23.048Z,23.75
2022-07-31T03:20:22.999Z,23.79
2022-07-31T03:21:22.955Z,23.79
2022-07-31T03:22:22.909Z,23.80
2022-07-31T03:23:22.864Z,23.79
2022-07-31T03:24:22.810Z,23.86
2022-07-31T03:25:22.768Z,23.80
2022-07-31T03:26:22.719Z,23.71
2022-07-31T03:27:22.670Z,23.68
2022-07-31T03:28:22.620Z,23.79
2022-07-31T03:29:43.478Z,23.82
2022-07-31T03:30:22.526Z,23.75
2022-07-31T03:31:22.480Z,23.72
2022-07-31T03:32:22.432Z,23.67
2022-07-31T03:33:22.387Z,23.67
2022-07-31T03:34:22.338Z,23.75
2022-07-31T03:35:22.297Z,23.76
2022-07-31T03:36:22.243Z,23.72
2022-07-31T03:37:22.199Z,23.75
2022-07-31T03:38:41.057Z,23.67
2022-07-31T03:39:22.102Z,23.70
2022-07-31T03:40:22.052Z,23.68
2022-07-31T03:41:22.009Z,23.71
2022-07-31T03:42:21.959Z,23.68
2022-07-31T03:43:21.911Z,23.70
2022-07-31T03:44:21.863Z,23.68
2022-07-31T03:45:21.822Z,23.62
2022-07-31T03:46:21.774Z,23.67
2022-07-31T03:47:21.724Z,23.62
2022-07-31T03:48:21.674Z,23.71
2022-07-31T03:49:21.805Z,23.58
2022-07-31T03:50:21.585Z,23.60
2022-07-31T03:51:21.553Z,23.67
2022-07-31T03:52:21.485Z,23.65
2022-07-31T03:53:21.439Z,23.70
2022-07-31T03:54:21.395Z,23.65
2022-07-31T03:55:21.344Z,23.64
2022-07-31T03:56:21.300Z,23.70
2022-07-31T03:57:21.248Z,23.61
2022-07-31T03:58:21.204Z,23.64
2022-07-31T03:59:21.693Z,23.64
2022-07-31T04:00:21.104Z,23.62
2022-07-31T04:01:21.154Z,23.67
2022-07-31T04:02:21.046Z,23.61
2022-07-31T04:03:20.964Z,23.61
2022-07-31T04:04:20.915Z,23.64
2022-07-31T04:05:20.871Z,23.65
2022-07-31T04:06:20.821Z,23.61
2022-07-31T04:07:20.775Z,23.64
2022-07-31T04:08:20.725Z,23.61
2022-07-31T04:09:20.681Z,23.57
2022-07-31T04:10:20.633Z,23.61
2022-07-31T04:11:20.584Z,23.62
2022-07-31T04:12:20.536Z,23.62
2022-07-31T04:13:20.490Z,23.58
2022-07-31T04:14:20.443Z,23.61
2022-07-31T04:15:20.396Z,23.57
2022-07-31T04:16:20.349Z,23.64
2022-07-31T04:17:20.302Z,23.53
2022-07-31T04:18:20.252Z,23.57
2022-07-31T04:19:20.207Z,23.55
2022-07-31T04:20:20.168Z,23.60
2022-07-31T04:21:20.117Z,23.52
2022-07-31T04:22:20.066Z,23.55
2022-07-31T04:23:20.018Z,23.49
2022-07-31T04:24:19.968Z,23.50
2022-07-31T04:25:19.925Z,23.57
2022-07-31T04:26:26.087Z,23.53
2022-07-31T04:27:19.826Z,23.53
2022-07-31T04:28:19.779Z,23.53
2022-07-31T04:29:19.730Z,23.49
2022-07-31T04:30:19.681Z,23.53
2022-07-31T04:31:19.636Z,23.55
2022-07-31T04:32:19.589Z,23.47
2022-07-31T04:33:19.542Z,23.46
2022-07-31T04:34:19.493Z,23.45
2022-07-31T04:35:19.445Z,23.52
2022-07-31T04:36:29.792Z,23.52
2022-07-31T04:37:19.350Z,23.55
2022-07-31T04:38:19.303Z,23.53
2022-07-31T04:39:19.256Z,23.47
2022-07-31T04:40:19.206Z,23.49
2022-07-31T04:41:19.160Z,23.43
2022-07-31T04:42:19.115Z,23.46
2022-07-31T04:43:19.065Z,23.43
2022-07-31T04:44:19.017Z,23.43
2022-07-31T04:45:18.971Z,23.43
2022-07-31T04:46:18.921Z,23.43
2022-07-31T04:47:18.875Z,23.52
2022-07-31T04:48:18.827Z,23.46
2022-07-31T04:49:18.818Z,23.43
2022-07-31T04:50:18.732Z,23.40
2022-07-31T04:51:18.694Z,23.46
2022-07-31T04:52:18.639Z,23.43
2022-07-31T04:53:18.590Z,23.42
2022-07-31T04:54:18.545Z,23.43
2022-07-31T04:55:18.495Z,23.42
2022-07-31T04:56:18.450Z,23.42
2022-07-31T04:57:21.714Z,23.42
2022-07-31T04:58:18.352Z,23.32
2022-07-31T04:59:18.304Z,23.42
2022-07-31T05:00:18.279Z,23.42
2022-07-31T05:01:18.250Z,23.42
2022-07-31T05:02:18.163Z,23.43
2022-07-31T05:03:18.113Z,23.39
2022-07-31T05:04:18.066Z,23.39
2022-07-31T05:05:18.019Z,23.29
2022-07-31T05:06:17.974Z,23.46
2022-07-31T05:07:17.926Z,23.31
2022-07-31T05:08:17.873Z,23.39
2022-07-31T05:09:19.239Z,23.32
2022-07-31T05:10:17.779Z,23.39
2022-07-31T05:11:17.733Z,23.40
2022-07-31T05:12:17.684Z,23.39
2022-07-31T05:13:17.638Z,23.31
2022-07-31T05:14:17.589Z,23.32
2022-07-31T05:15:17.542Z,23.32
2022-07-31T05:16:17.493Z,23.35
2022-07-31T05:17:17.448Z,23.31
2022-07-31T05:18:17.398Z,23.31
2022-07-31T05:19:17.353Z,23.35
2022-07-31T05:20:17.302Z,23.34
2022-07-31T05:21:17.262Z,23.32
2022-07-31T05:22:17.208Z,23.34
2022-07-31T05:23:17.162Z,23.35
2022-07-31T05:24:17.112Z,23.31
2022-07-31T05:25:17.067Z,23.34
2022-07-31T05:26:17.017Z,23.29
2022-07-31T05:27:16.970Z,23.34
2022-07-31T05:28:16.922Z,23.38
2022-07-31T05:29:16.878Z,23.35
2022-07-31T05:30:16.828Z,23.31
2022-07-31T05:31:16.784Z,23.35
2022-07-31T05:32:17.212Z,23.32
2022-07-31T05:33:16.686Z,23.39
2022-07-31T05:34:16.640Z,23.42
2022-07-31T05:35:16.594Z,23.35
2022-07-31T05:36:16.550Z,23.38
2022-07-31T05:37:16.496Z,23.31
2022-07-31T05:38:16.447Z,23.39
2022-07-31T05:39:16.401Z,23.29
2022-07-31T05:40:16.351Z,23.39
2022-07-31T05:41:16.303Z,23.34
2022-07-31T05:42:16.256Z,23.34
2022-07-31T05:43:16.219Z,23.31
2022-07-31T05:44:16.159Z,23.32
2022-07-31T05:45:16.113Z,23.39
2022-07-31T05:46:16.064Z,23.35
2022-07-31T05:47:16.018Z,23.34
2022-07-31T05:48:15.968Z,23.38
2022-07-31T05:49:16.023Z,23.38
2022-07-31T05:50:15.873Z,23.32
2022-07-31T05:51:15.826Z,23.32
2022-07-31T05:52:15.779Z,23.42
2022-07-31T05:53:15.731Z,23.27
2022-07-31T05:54:15.692Z,23.29
2022-07-31T05:55:15.639Z,23.32
2022-07-31T05:56:15.586Z,23.32
2022-07-31T05:57:33.581Z,23.31
2022-07-31T05:58:16.922Z,23.35
2022-07-31T05:59:15.445Z,23.29
2022-07-31T06:00:15.399Z,23.35
2022-07-31T06:01:15.410Z,23.39
2022-07-31T06:02:15.302Z,23.29
2022-07-31T06:03:15.254Z,23.29
2022-07-31T06:04:15.208Z,23.32
2022-07-31T06:05:15.162Z,23.34
2022-07-31T06:06:16.996Z,23.32
2022-07-31T06:07:15.063Z,23.38
2022-07-31T06:08:15.015Z,23.35
2022-07-31T06:09:14.973Z,23.34
2022-07-31T06:10:14.919Z,23.34
2022-07-31T06:11:14.874Z,23.34
2022-07-31T06:12:14.823Z,23.35
2022-07-31T06:13:14.776Z,23.45
2022-07-31T06:14:14.729Z,23.40
2022-07-31T06:15:14.679Z,23.32
2022-07-31T06:16:14.639Z,23.40
2022-07-31T06:17:14.585Z,23.29
2022-07-31T06:18:14.539Z,23.31
2022-07-31T06:19:14.489Z,23.38
2022-07-31T06:20:14.443Z,23.40
2022-07-31T06:21:35.390Z,23.31
2022-07-31T06:22:14.346Z,23.39
2022-07-31T06:23:19.977Z,23.29
2022-07-31T06:24:14.250Z,23.40
2022-07-31T06:25:14.916Z,23.39
2022-07-31T06:26:14.155Z,23.35
2022-07-31T06:27:16.193Z,23.40
2022-07-31T06:28:14.060Z,23.43
2022-07-31T06:29:14.015Z,23.46
2022-07-31T06:30:13.973Z,23.31
2022-07-31T06:31:13.919Z,23.39
2022-07-31T06:32:13.869Z,23.42
2022-07-31T06:33:16.616Z,23.42
2022-07-31T06:34:17.095Z,23.34
2022-07-31T06:35:13.729Z,23.42
2022-07-31T06:36:13.684Z,23.42
2022-07-31T06:37:13.633Z,23.38
2022-07-31T06:38:13.586Z,23.39
2022-07-31T06:39:13.537Z,23.38
2022-07-31T06:40:13.489Z,23.43
2022-07-31T06:41:13.442Z,23.40
2022-07-31T06:42:13.396Z,23.39
2022-07-31T06:43:13.346Z,23.39
2022-07-31T06:44:13.296Z,23.40
2022-07-31T06:45:25.064Z,23.43
2022-07-31T06:46:13.201Z,23.43
2022-07-31T06:47:16.043Z,23.45
2022-07-31T06:48:13.105Z,23.43
2022-07-31T06:49:13.097Z,23.42
2022-07-31T06:50:13.013Z,23.35
2022-07-31T06:51:30.204Z,23.42
2022-07-31T06:52:12.917Z,23.42
2022-07-31T06:53:12.870Z,23.46
2022-07-31T06:54:12.819Z,23.46
2022-07-31T06:55:12.775Z,23.43
2022-07-31T06:56:12.724Z,23.42
2022-07-31T06:57:12.678Z,23.47
2022-07-31T06:58:12.631Z,23.42
2022-07-31T06:59:12.581Z,23.39
2022-07-31T07:00:19.579Z,23.47
2022-07-31T07:01:12.533Z,23.39
2022-07-31T07:02:12.443Z,23.40
2022-07-31T07:03:12.393Z,23.43
2022-07-31T07:04:12.347Z,23.43
2022-07-31T07:05:12.298Z,23.40
2022-07-31T07:06:12.249Z,23.42
2022-07-31T07:07:12.201Z,23.42
2022-07-31T07:08:12.152Z,23.50
2022-07-31T07:09:12.111Z,23.45
2022-07-31T07:10:12.057Z,23.45
2022-07-31T07:11:12.525Z,23.45
2022-07-31T07:12:11.961Z,23.45
2022-07-31T07:13:11.917Z,23.45
2022-07-31T07:14:11.867Z,23.46
2022-07-31T07:15:11.819Z,23.45
2022-07-31T07:16:11.770Z,23.52
2022-07-31T07:17:11.725Z,23.49
2022-07-31T07:18:11.677Z,23.43
2022-07-31T07:19:11.628Z,23.46
2022-07-31T07:20:11.579Z,23.47
2022-07-31T07:21:11.533Z,23.47
2022-07-31T07:22:11.487Z,23.57
2022-07-31T07:23:11.438Z,23.50
2022-07-31T07:24:11.389Z,23.49
2022-07-31T07:25:11.344Z,23.49
2022-07-31T07:26:11.297Z,23.55
2022-07-31T07:27:11.251Z,23.50
2022-07-31T07:28:15.242Z,23.52
2022-07-31T07:29:11.153Z,23.55
2022-07-31T07:30:11.102Z,23.47
2022-07-31T07:31:11.058Z,23.47
2022-07-31T07:32:11.007Z,23.49
2022-07-31T07:33:10.962Z,23.55
2022-07-31T07:34:10.915Z,23.49
2022-07-31T07:35:10.867Z,23.53
2022-07-31T07:36:23.520Z,23.53
2022-07-31T07:37:10.773Z,23.55
2022-07-31T07:38:10.723Z,23.50
2022-07-31T07:39:10.675Z,23.52
2022-07-31T07:40:10.626Z,23.55
2022-07-31T07:41:10.581Z,23.57
2022-07-31T07:42:10.532Z,23.49
2022-07-31T07:43:10.484Z,23.53
2022-07-31T07:44:10.435Z,23.53
2022-07-31T07:45:10.392Z,23.55
2022-07-31T07:46:10.341Z,23.49
2022-07-31T07:47:10.293Z,23.55
2022-07-31T07:48:10.244Z,23.53
2022-07-31T07:49:10.237Z,23.53
2022-07-31T07:50:10.160Z,23.49
2022-07-31T07:51:10.105Z,23.55
2022-07-31T07:52:10.483Z,23.57
2022-07-31T07:53:10.009Z,23.53
2022-07-31T07:54:09.961Z,23.58
2022-07-31T07:55:09.913Z,23.55
2022-07-31T07:56:09.863Z,23.61
2022-07-31T07:57:09.817Z,23.62
2022-07-31T07:58:12.043Z,23.58
2022-07-31T07:59:14.893Z,23.58
2022-07-31T08:00:09.674Z,23.60
2022-07-31T08:01:09.656Z,23.60
2022-07-31T08:02:09.577Z,23.62
2022-07-31T08:03:48.967Z,23.57
2022-07-31T08:04:09.482Z,23.58
2022-07-31T08:05:09.451Z,23.60
2022-07-31T08:06:09.393Z,23.60
2022-07-31T08:07:09.357Z,23.61
2022-07-31T08:08:09.295Z,23.64
2022-07-31T08:09:09.250Z,23.62
2022-07-31T08:10:09.196Z,23.58
2022-07-31T08:11:09.149Z,23.58
2022-07-31T08:12:09.110Z,23.64
2022-07-31T08:13:09.056Z,23.64
2022-07-31T08:14:09.005Z,23.64
2022-07-31T08:15:08.958Z,23.60
2022-07-31T08:16:08.911Z,23.61
2022-07-31T08:17:08.866Z,23.62
2022-07-31T08:18:08.816Z,23.61
2022-07-31T08:19:08.770Z,23.62
2022-07-31T08:20:08.720Z,23.62
2022-07-31T08:21:08.674Z,23.62
2022-07-31T08:22:08.624Z,23.53
2022-07-31T08:23:08.586Z,23.65
2022-07-31T08:24:08.531Z,23.70
2022-07-31T08:25:14.422Z,23.64
2022-07-31T08:26:08.570Z,23.64
2022-07-31T08:27:10.569Z,23.72
2022-07-31T08:28:11.161Z,23.68
2022-07-31T08:29:08.292Z,23.62
2022-07-31T08:30:08.247Z,23.62
2022-07-31T08:31:08.198Z,23.60
2022-07-31T08:32:08.154Z,23.65
2022-07-31T08:33:08.101Z,23.71
2022-07-31T08:34:08.052Z,23.64
2022-07-31T08:35:08.006Z,23.52
2022-07-31T08:36:07.958Z,23.64
2022-07-31T08:37:51.802Z,23.72
2022-07-31T08:38:07.867Z,23.65
2022-07-31T08:39:07.821Z,23.70
2022-07-31T08:40:07.767Z,23.77
2022-07-31T08:41:07.721Z,23.72
2022-07-31T08:42:07.672Z,23.68
2022-07-31T08:43:31.012Z,23.67
2022-07-31T08:44:07.576Z,23.75
2022-07-31T08:45:07.532Z,23.57
2022-07-31T08:46:07.481Z,23.77
2022-07-31T08:47:07.435Z,23.60
2022-07-31T08:48:07.385Z,23.67
2022-07-31T08:49:07.434Z,23.64
2022-07-31T08:50:07.291Z,23.67
2022-07-31T08:51:07.244Z,23.60
2022-07-31T08:52:07.534Z,23.62
2022-07-31T08:53:07.153Z,23.64
2022-07-31T08:54:07.101Z,23.76
2022-07-31T08:55:07.053Z,23.71
2022-07-31T08:56:07.004Z,23.64
2022-07-31T08:57:10.639Z,23.67
2022-07-31T08:58:06.910Z,23.61
2022-07-31T08:59:06.864Z,23.67
2022-07-31T09:00:06.814Z,23.68
2022-07-31T09:01:06.852Z,23.75
2022-07-31T09:02:07.045Z,23.67
2022-07-31T09:03:06.674Z,23.61
2022-07-31T09:04:06.623Z,23.72
2022-07-31T09:05:06.578Z,23.79
2022-07-31T09:06:06.529Z,23.71
2022-07-31T09:07:06.834Z,23.70
2022-07-31T09:08:06.571Z,23.77
2022-07-31T09:09:06.386Z,23.75
2022-07-31T09:10:06.340Z,23.71
2022-07-31T09:11:06.514Z,23.76
2022-07-31T09:12:06.245Z,23.71
2022-07-31T09:13:06.197Z,23.70
2022-07-31T09:14:06.151Z,23.70
2022-07-31T09:15:06.100Z,23.79
2022-07-31T09:16:06.056Z,23.77
2022-07-31T09:17:06.485Z,23.79
2022-07-31T09:18:05.959Z,23.82
2022-07-31T09:19:54.133Z,23.82
2022-07-31T09:20:05.871Z,23.80
2022-07-31T09:21:05.848Z,23.77
2022-07-31T09:22:10.121Z,23.79
2022-07-31T09:23:05.720Z,23.80
2022-07-31T09:24:05.674Z,23.90
2022-07-31T09:25:05.627Z,23.79
2022-07-31T09:26:05.583Z,23.85
2022-07-31T09:27:05.943Z,23.87
2022-07-31T09:28:05.485Z,23.85
2022-07-31T09:29:05.434Z,23.80
2022-07-31T09:30:05.388Z,23.76
2022-07-31T09:31:05.338Z,23.83
2022-07-31T09:32:05.296Z,23.77
2022-07-31T09:33:05.244Z,23.79
2022-07-31T09:34:05.250Z,23.77
2022-07-31T09:35:05.148Z,23.85
2022-07-31T09:36:05.102Z,23.80
2022-07-31T09:37:05.361Z,23.85
2022-07-31T09:38:05.011Z,23.79
2022-07-31T09:39:05.364Z,23.85
2022-07-31T09:40:04.912Z,23.87
2022-07-31T09:41:16.572Z,23.87
2022-07-31T09:42:16.155Z,23.85
2022-07-31T09:43:04.769Z,23.83
2022-07-31T09:44:10.522Z,23.83
2022-07-31T09:45:04.672Z,23.86
2022-07-31T09:46:04.627Z,23.86
2022-07-31T09:47:04.818Z,23.85
2022-07-31T09:48:04.532Z,23.89
2022-07-31T09:49:04.541Z,23.86
2022-07-31T09:50:04.449Z,23.90
2022-07-31T09:51:04.398Z,23.80
2022-07-31T09:52:04.341Z,23.85
2022-07-31T09:53:04.296Z,23.86
2022-07-31T09:54:04.252Z,23.79
2022-07-31T09:55:14.336Z,23.89
2022-07-31T09:56:04.153Z,23.87
2022-07-31T09:57:04.516Z,23.89
2022-07-31T09:58:04.058Z,23.97
2022-07-31T09:59:04.007Z,23.92
2022-07-31T10:00:03.962Z,23.95
2022-07-31T10:01:03.966Z,23.94
2022-07-31T10:02:03.867Z,23.95
2022-07-31T10:03:03.824Z,23.95
2022-07-31T10:04:03.774Z,23.97
2022-07-31T10:05:03.725Z,23.95
2022-07-31T10:06:03.677Z,23.97
2022-07-31T10:07:03.939Z,24.00
2022-07-31T10:08:03.582Z,23.90
2022-07-31T10:09:03.535Z,24.00
2022-07-31T10:10:03.490Z,24.01
2022-07-31T10:11:03.439Z,23.97
2022-07-31T10:12:03.394Z,23.95
2022-07-31T10:13:03.346Z,23.95
2022-07-31T10:14:03.298Z,23.98
2022-07-31T10:15:03.249Z,23.92
2022-07-31T10:16:03.201Z,24.02
2022-07-31T10:17:03.445Z,24.05
2022-07-31T10:18:03.111Z,24.05
2022-07-31T10:19:03.060Z,24.05
2022-07-31T10:20:03.030Z,24.10
2022-07-31T10:21:02.973Z,24.04
2022-07-31T10:22:02.918Z,24.05
2022-07-31T10:23:02.868Z,24.04
2022-07-31T10:24:02.825Z,24.04
2022-07-31T10:25:02.776Z,24.14
2022-07-31T10:26:02.729Z,24.07
2022-07-31T10:27:10.383Z,24.07
2022-07-31T10:28:02.633Z,24.07
2022-07-31T10:29:02.613Z,24.08
2022-07-31T10:30:02.542Z,24.08
2022-07-31T10:31:02.489Z,24.13
2022-07-31T10:32:02.443Z,24.12
2022-07-31T10:33:02.394Z,24.10
2022-07-31T10:34:02.354Z,24.13
2022-07-31T10:35:02.299Z,24.08
2022-07-31T10:36:02.252Z,24.12
2022-07-31T10:37:02.749Z,24.10
2022-07-31T10:38:02.162Z,24.13
2022-07-31T10:39:02.108Z,24.13
2022-07-31T10:40:02.077Z,24.16
2022-07-31T10:41:02.014Z,24.02
2022-07-31T10:42:01.977Z,24.14
2022-07-31T10:43:01.920Z,24.08
2022-07-31T10:44:01.874Z,24.05
2022-07-31T10:45:01.837Z,24.07
2022-07-31T10:46:01.782Z,24.10
2022-07-31T10:47:02.103Z,24.22
2022-07-31T10:48:01.683Z,24.20
2022-07-31T10:49:01.734Z,24.16
2022-07-31T10:50:01.589Z,24.10
2022-07-31T10:51:01.549Z,24.16
2022-07-31T10:52:01.494Z,24.19
2022-07-31T10:53:01.446Z,24.22
2022-07-31T10:54:01.403Z,24.19
2022-07-31T10:55:01.350Z,24.23
2022-07-31T10:56:01.306Z,24.23
2022-07-31T10:57:01.400Z,24.29
2022-07-31T10:58:01.213Z,24.22
2022-07-31T10:59:01.160Z,24.26
2022-07-31T11:00:01.115Z,24.22
2022-07-31T11:01:01.067Z,24.29
2022-07-31T11:02:01.054Z,24.22
2022-07-31T11:03:00.973Z,24.27
2022-07-31T11:04:00.927Z,24.31
2022-07-31T11:05:00.880Z,24.27
2022-07-31T11:06:02.752Z,24.32
2022-07-31T11:07:00.803Z,24.31
2022-07-31T11:08:00.738Z,24.37
2022-07-31T11:09:00.688Z,24.31
2022-07-31T11:10:00.642Z,24.31
2022-07-31T11:11:00.599Z,24.35
2022-07-31T11:12:00.549Z,24.29
2022-07-31T11:13:00.504Z,24.31
2022-07-31T11:14:00.453Z,24.34
2022-07-31T11:15:00.403Z,24.31
2022-07-31T11:16:00.358Z,24.34
2022-07-31T11:17:00.310Z,24.35
2022-07-31T11:18:21.999Z,24.41
2022-07-31T11:19:00.214Z,24.45
2022-07-31T11:20:00.176Z,24.38
2022-07-31T11:21:00.122Z,24.35
2022-07-31T11:22:00.092Z,24.47
2022-07-31T11:23:00.026Z,24.44
2022-07-31T11:24:03.199Z,24.42
2022-07-31T11:24:59.935Z,24.35
2022-07-31T11:25:59.885Z,24.41
2022-07-31T11:26:59.844Z,24.42
2022-07-31T11:27:59.790Z,24.44
2022-07-31T11:28:59.746Z,24.41
2022-07-31T11:30:04.136Z,24.50
2022-07-31T11:30:59.652Z,24.45
2022-07-31T11:31:59.607Z,24.41
2022-07-31T11:32:59.553Z,24.45
2022-07-31T11:33:59.506Z,24.52
2022-07-31T11:34:59.457Z,24.52
2022-07-31T11:35:59.412Z,24.47
2022-07-31T11:36:59.362Z,24.52
2022-07-31T11:37:59.841Z,24.45
2022-07-31T11:38:59.269Z,24.50
2022-07-31T11:39:59.222Z,24.54
2022-07-31T11:40:59.174Z,24.49
2022-07-31T11:41:59.130Z,24.49
2022-07-31T11:43:24.796Z,24.64
2022-07-31T11:43:59.034Z,24.53
2022-07-31T11:44:58.986Z,24.56
2022-07-31T11:45:59.126Z,24.63
2022-07-31T11:46:58.891Z,24.64
2022-07-31T11:48:12.564Z,24.61
2022-07-31T11:48:58.883Z,24.61
2022-07-31T11:49:58.797Z,24.63
2022-07-31T11:50:58.701Z,24.61
2022-07-31T11:51:58.656Z,24.59
2022-07-31T11:52:58.607Z,24.63
2022-07-31T11:53:58.567Z,24.61
2022-07-31T11:54:58.516Z,24.63
2022-07-31T11:55:58.467Z,24.59
2022-07-31T11:56:58.420Z,24.64
2022-07-31T11:57:58.378Z,24.64
2022-07-31T11:58:58.324Z,24.73
2022-07-31T11:59:58.280Z,24.71
2022-07-31T12:00:58.230Z,24.73
2022-07-31T12:01:58.185Z,24.59
2022-07-31T12:02:58.298Z,24.67
2022-07-31T12:04:01.629Z,24.68
2022-07-31T12:04:58.044Z,24.61
2022-07-31T12:05:57.996Z,24.75
2022-07-31T12:06:57.947Z,24.80
2022-07-31T12:07:57.902Z,24.73
2022-07-31T12:08:57.857Z,24.69
2022-07-31T12:10:01.233Z,24.68
2022-07-31T12:10:57.758Z,24.73
2022-07-31T12:11:57.713Z,24.75
2022-07-31T12:12:57.672Z,24.69
2022-07-31T12:13:57.619Z,24.76
2022-07-31T12:14:57.574Z,24.67
2022-07-31T12:15:57.528Z,24.71
2022-07-31T12:16:57.476Z,24.73
2022-07-31T12:17:57.431Z,24.68
2022-07-31T12:18:57.381Z,24.71
2022-07-31T12:19:58.117Z,24.69
2022-07-31T12:20:57.304Z,24.69
2022-07-31T12:21:57.248Z,24.69
2022-07-31T12:22:57.200Z,24.73
2022-07-31T12:23:57.150Z,24.75
2022-07-31T12:24:57.100Z,24.75
2022-07-31T12:25:57.054Z,24.75
2022-07-31T12:26:57.006Z,24.79
2022-07-31T12:27:56.961Z,24.71
2022-07-31T12:28:56.914Z,24.79
2022-07-31T12:29:56.867Z,24.79
2022-07-31T12:30:56.816Z,24.80
2022-07-31T12:31:56.772Z,24.82
2022-07-31T12:32:56.724Z,24.79
2022-07-31T12:33:56.676Z,24.80
2022-07-31T12:34:56.629Z,24.80
2022-07-31T12:35:57.282Z,24.82
2022-07-31T12:36:56.534Z,24.77
2022-07-31T12:37:56.490Z,24.83
2022-07-31T12:38:56.439Z,24.80
2022-07-31T12:40:00.797Z,24.87
2022-07-31T12:40:56.356Z,24.91
2022-07-31T12:41:56.301Z,24.85
2022-07-31T12:42:56.252Z,24.77
2022-07-31T12:43:56.206Z,24.88
2022-07-31T12:44:56.158Z,24.87
2022-07-31T12:45:56.113Z,24.75
2022-07-31T12:46:56.063Z,24.83
2022-07-31T12:47:56.022Z,24.87
2022-07-31T12:48:55.993Z,24.77
2022-07-31T12:49:55.935Z,24.75
2022-07-31T12:50:55.876Z,24.85
2022-07-31T12:51:55.829Z,24.73